Aeroporto :
LOGIN :

Iscrizione | Disclaimer

   EN    FR    IT 

 










Sommario :    VFR   VFR Marginale   IFR   IFR Intensivo   IFR Molto Intensivo
Visibilità : 
Base nubi : 
>= 8 km
>= 3000ft
5 / 8 km
1000 / 3000 ft
1500m / 5 km
500 / 1000 ft
800 / 1500m
200 / 500 ft
< 800m
< 200 ft
Simboli :   Temporali  Nebbia  Neve Forte  Precipitazioni Forti  Vento > 20 kt
SIGMETs :   Varie  Temporali  Ghiacco  Turbolenza  Onda orograficha  Ceneri Vulcaniche






- Altitudine del aeroporto : 584 ft


LFPV - Villacoublay Vélizy

ULTIMO METAR :
  • 210000Z AUTO 09006KT 070V130 5000 BR NSC 01/00 Q1007 NOSIG

METARs OBSOLETI :
  • 202330Z AUTO 09006KT 5000 BR NSC 01/01 Q1007 NOSIG
  • 202300Z AUTO 09006KT 5000 BR NSC 01/01 Q1007 NOSIG
  • 202230Z AUTO 09006KT 5000 BR NSC 01/01 Q1007 NOSIG
  • 202200Z AUTO 09005KT 6000 NSC 01/01 Q1008 NOSIG
  • 202130Z AUTO 09007KT 6000 NSC 02/01 Q1008 NOSIG

TAF TAF LFPV
Valido dal 20 a 21 ore il 21 a 21 ore UTC


202000Z 2021/2121 12005KT CAVOK
BECMG 2102/2104 2000 BR
PROB40 2104/2110 OVC003
PROB30
TEMPO 2105/2109 0400 FG VV///
TEMPO 2117/2121 4000 -RA BKN010 BKN025



MetMap, La meteo Aeronautica in un colpo d'occhio ! - Copyright ORBIFLY Dicembre 2007 - Disclaimer

ORBIFLY MET'MAP TEAM :

Programmazione e sviluppo : Alexandra Zaïnal
Concezione e sviluppo : Baudouin d'Aumeries
Co-Programmazione e sviluppo : Marc-Olivier Méhu
Supporto tecnico e logistico : Manuel Goepfert
Aiuto per la traduzione : Arnaldo La Scala

Contatto : metmap@orbifly.com




FONTI E CREDITI :

   NOAA